PWSweather.com
Personal Weather Stations
Station Observations
AC5CV
Greenleaf Peninsula, Waco, TX 76710

Greenleaf PeninsulaWaco, TX 76710

Lat: 31.565, Lon: -97.198

Elevation: 570

Station Type: Ambient WS2080

http://johnchamber.dyndns.info/

Latest ConditionsUpdated 3:00:00 PM CDT Friday, Aug 18, 2017
Currently Today's Max Today's Min Today's Average
Temperature 94.2°F34.6°C 95.5°F35.3°C 75.0°F23.9°C 82.6°F28.1°C
Dew Point 61.2°F16.2°C 73.5°F23.1°C 61.2°F16.2°C 68.9°F20.5°C
Winds 2.0 mph NW3.2 kmh NW 5.5 mph S8.9 kmh S - 1.6 mph 2.6 kmh
Wind Gusts 4.9 mph7.9 kmh 12.3 mph19.8 kmh - -
Humidity 34% 90% 33% 67%
Pressure 29.40 in995.6 mb 29.46 in997.6 mb 29.38 in994.9 mb -
Hour Temp Dew Point Humidity Winds Wind Gusts Pressure Precip Precip Rate Daily Precip Total
03:00 PM 94.2°F34.6°C 61.2°F16.2°C 34% 2.0 mph NW3.2 kmh NW 4.9 mph7.9 kmh 29.40 in995.6 mb 0.00 in0.0 mm 0.00 in0.0 mm 0.00 in0.0 mm
02:55 PM 94.1°F34.5°C 61.3°F16.3°C 34% 2.3 mph NW3.7 kmh NW 4.9 mph7.9 kmh 29.41 in995.9 mb 0.00 in0.0 mm 0.00 in0.0 mm 0.00 in0.0 mm
02:50 PM 94.1°F34.5°C 62.5°F16.9°C 35% 2.1 mph NW3.4 kmh NW 4.9 mph7.9 kmh 29.41 in995.9 mb 0.00 in0.0 mm 0.00 in0.0 mm 0.00 in0.0 mm
02:45 PM 94.1°F34.5°C 62.2°F16.8°C 35% 2.7 mph N4.3 kmh N 7.4 mph11.9 kmh 29.41 in995.9 mb 0.00 in0.0 mm 0.00 in0.0 mm 0.00 in0.0 mm
02:40 PM 94.0°F34.4°C 62.1°F16.7°C 35% 2.5 mph NNW4.0 kmh NNW 4.9 mph7.9 kmh 29.41 in995.9 mb 0.00 in0.0 mm 0.00 in0.0 mm 0.00 in0.0 mm
02:35 PM 93.9°F34.4°C 63.3°F17.4°C 37% 1.9 mph N3.1 kmh N 4.9 mph7.9 kmh 29.41 in995.9 mb 0.00 in0.0 mm 0.00 in0.0 mm 0.00 in0.0 mm
02:30 PM 93.9°F34.4°C 62.8°F17.1°C 36% 2.5 mph N4.0 kmh N 7.4 mph11.9 kmh 29.41 in995.9 mb 0.00 in0.0 mm 0.00 in0.0 mm 0.00 in0.0 mm
02:25 PM 93.7°F34.3°C 63.6°F17.6°C 37% 2.4 mph NW3.9 kmh NW 4.9 mph7.9 kmh 29.42 in996.3 mb 0.00 in0.0 mm 0.00 in0.0 mm 0.00 in0.0 mm
02:20 PM 93.9°F34.4°C 63.8°F17.7°C 37% 2.4 mph NW3.9 kmh NW 4.9 mph7.9 kmh 29.42 in996.3 mb 0.00 in0.0 mm 0.00 in0.0 mm 0.00 in0.0 mm
02:15 PM 93.9°F34.4°C 64.3°F17.9°C 38% 3.1 mph NNW5.0 kmh NNW 7.4 mph11.9 kmh 29.41 in995.9 mb 0.00 in0.0 mm 0.00 in0.0 mm 0.00 in0.0 mm
02:10 PM 93.9°F34.4°C 65.0°F18.3°C 39% 2.5 mph N4.0 kmh N 7.4 mph11.9 kmh 29.42 in996.3 mb 0.00 in0.0 mm 0.00 in0.0 mm 0.00 in0.0 mm
02:05 PM 94.8°F34.9°C 66.1°F18.9°C 39% 3.3 mph NNW5.3 kmh NNW 4.9 mph7.9 kmh 29.42 in996.3 mb 0.00 in0.0 mm 0.00 in0.0 mm 0.00 in0.0 mm
02:00 PM 95.2°F35.1°C 64.5°F18.1°C 37% 2.5 mph NW4.0 kmh NW 7.4 mph11.9 kmh 29.42 in996.3 mb 0.00 in0.0 mm 0.00 in0.0 mm 0.00 in0.0 mm
01:55 PM 95.3°F35.2°C 65.0°F18.3°C 37% 2.0 mph WNW3.2 kmh WNW 4.9 mph7.9 kmh 29.43 in996.6 mb 0.00 in0.0 mm 0.00 in0.0 mm 0.00 in0.0 mm
01:50 PM 95.5°F35.3°C 63.4°F17.4°C 35% 3.4 mph NW5.5 kmh NW 7.4 mph11.9 kmh 29.42 in996.3 mb 0.00 in0.0 mm 0.00 in0.0 mm 0.00 in0.0 mm
01:45 PM 95.1°F35.1°C 61.7°F16.5°C 33% 1.3 mph NW2.1 kmh NW 7.4 mph11.9 kmh 29.42 in996.3 mb 0.00 in0.0 mm 0.00 in0.0 mm 0.00 in0.0 mm
01:40 PM 94.8°F34.9°C 62.1°F16.7°C 34% Calm Calm -- 29.42 in996.3 mb 0.00 in0.0 mm 0.00 in0.0 mm 0.00 in0.0 mm
01:35 PM 94.6°F34.8°C 62.7°F17.1°C 35% 0.2 mph SW0.3 kmh SW 2.5 mph4.0 kmh 29.42 in996.3 mb 0.00 in0.0 mm 0.00 in0.0 mm 0.00 in0.0 mm
01:30 PM 94.6°F34.8°C 63.1°F17.3°C 36% 1.3 mph SW2.1 kmh SW 2.5 mph4.0 kmh 29.43 in996.6 mb 0.00 in0.0 mm 0.00 in0.0 mm 0.00 in0.0 mm
01:25 PM 94.5°F34.7°C 63.5°F17.5°C 36% 1.1 mph SW1.8 kmh SW 4.9 mph7.9 kmh 29.42 in996.3 mb 0.00 in0.0 mm 0.00 in0.0 mm 0.00 in0.0 mm
01:20 PM 94.5°F34.7°C 64.1°F17.8°C 37% 3.3 mph S5.3 kmh S 7.4 mph11.9 kmh 29.42 in996.3 mb 0.00 in0.0 mm 0.00 in0.0 mm 0.00 in0.0 mm
01:15 PM 94.5°F34.7°C 64.3°F17.9°C 37% 0.8 mph SW1.3 kmh SW 2.5 mph4.0 kmh 29.42 in996.3 mb 0.00 in0.0 mm 0.00 in0.0 mm 0.00 in0.0 mm
01:10 PM 94.5°F34.7°C 64.0°F17.8°C 37% 2.7 mph S4.3 kmh S 7.4 mph11.9 kmh 29.43 in996.6 mb 0.00 in0.0 mm 0.00 in0.0 mm 0.00 in0.0 mm
01:05 PM 93.8°F34.3°C 63.0°F17.2°C 36% 1.0 mph S1.6 kmh S 2.5 mph4.0 kmh 29.43 in996.6 mb 0.00 in0.0 mm 0.00 in0.0 mm 0.00 in0.0 mm
01:00 PM 93.7°F34.3°C 62.7°F17.1°C 36% 2.2 mph SSW3.5 kmh SSW 4.9 mph7.9 kmh 29.43 in996.6 mb 0.00 in0.0 mm 0.00 in0.0 mm 0.00 in0.0 mm
12:55 PM 93.7°F34.3°C 63.6°F17.6°C 37% 1.4 mph S2.3 kmh S 7.4 mph11.9 kmh 29.44 in997.0 mb 0.00 in0.0 mm 0.00 in0.0 mm 0.00 in0.0 mm
12:50 PM 93.7°F34.3°C 64.1°F17.8°C 38% 0.9 mph SW1.4 kmh SW 2.5 mph4.0 kmh 29.44 in997.0 mb 0.00 in0.0 mm 0.00 in0.0 mm 0.00 in0.0 mm
12:45 PM 93.6°F34.2°C 64.4°F18.0°C 38% 0.4 mph WSW0.6 kmh WSW 4.9 mph7.9 kmh 29.44 in997.0 mb 0.00 in0.0 mm 0.00 in0.0 mm 0.00 in0.0 mm
12:40 PM 93.7°F34.3°C 64.8°F18.2°C 39% 0.2 mph WSW0.3 kmh WSW 2.5 mph4.0 kmh 29.44 in997.0 mb 0.00 in0.0 mm 0.00 in0.0 mm 0.00 in0.0 mm
12:35 PM 93.7°F34.3°C 66.3°F19.1°C 41% 1.0 mph SW1.6 kmh SW 4.9 mph7.9 kmh 29.44 in997.0 mb 0.00 in0.0 mm 0.00 in0.0 mm 0.00 in0.0 mm
12:30 PM 93.7°F34.3°C 65.2°F18.4°C 39% 2.4 mph S3.9 kmh S 7.4 mph11.9 kmh 29.44 in997.0 mb 0.00 in0.0 mm 0.00 in0.0 mm 0.00 in0.0 mm
12:25 PM 92.7°F33.7°C 65.8°F18.8°C 41% 1.6 mph S2.6 kmh S 4.9 mph7.9 kmh 29.44 in997.0 mb 0.00 in0.0 mm 0.00 in0.0 mm 0.00 in0.0 mm
12:20 PM 92.7°F33.7°C 66.6°F19.2°C 43% 0.6 mph SW1.0 kmh SW 2.5 mph4.0 kmh 29.44 in997.0 mb 0.00 in0.0 mm 0.00 in0.0 mm 0.00 in0.0 mm
12:15 PM 92.9°F33.8°C 67.2°F19.6°C 43% 0.5 mph WSW0.8 kmh WSW 2.5 mph4.0 kmh 29.44 in997.0 mb 0.00 in0.0 mm 0.00 in0.0 mm 0.00 in0.0 mm
12:10 PM 93.2°F34.0°C 67.2°F19.6°C 43% 1.6 mph WSW2.6 kmh WSW 4.9 mph7.9 kmh 29.44 in997.0 mb 0.00 in0.0 mm 0.00 in0.0 mm 0.00 in0.0 mm
12:05 PM 91.9°F33.3°C 65.5°F18.6°C 42% 1.2 mph S1.9 kmh S 4.9 mph7.9 kmh 29.45 in997.3 mb 0.00 in0.0 mm 0.00 in0.0 mm 0.00 in0.0 mm
12:00 PM 91.4°F33.0°C 65.3°F18.5°C 42% 0.6 mph S1.0 kmh S 4.9 mph7.9 kmh 29.44 in997.0 mb 0.00 in0.0 mm 0.00 in0.0 mm 0.00 in0.0 mm
11:55 AM 91.4°F33.0°C 65.8°F18.8°C 43% 0.9 mph WSW1.4 kmh WSW 2.5 mph4.0 kmh 29.45 in997.3 mb 0.00 in0.0 mm 0.00 in0.0 mm 0.00 in0.0 mm
11:50 AM 91.2°F32.9°C 66.3°F19.1°C 44% 0.7 mph S1.1 kmh S 4.9 mph7.9 kmh 29.45 in997.3 mb 0.00 in0.0 mm 0.00 in0.0 mm 0.00 in0.0 mm
11:45 AM 91.0°F32.8°C 66.4°F19.1°C 45% 1.0 mph SW1.6 kmh SW 2.5 mph4.0 kmh 29.45 in997.3 mb 0.00 in0.0 mm 0.00 in0.0 mm 0.00 in0.0 mm
11:40 AM 90.7°F32.6°C 67.4°F19.7°C 46% 1.8 mph SSW2.9 kmh SSW 4.9 mph7.9 kmh 29.45 in997.3 mb 0.00 in0.0 mm 0.00 in0.0 mm 0.00 in0.0 mm
11:35 AM 90.7°F32.6°C 68.2°F20.1°C 48% 1.8 mph SSW2.9 kmh SSW 7.4 mph11.9 kmh 29.46 in997.6 mb 0.00 in0.0 mm 0.00 in0.0 mm 0.00 in0.0 mm
11:30 AM 90.7°F32.6°C 68.3°F20.2°C 48% 2.0 mph SSW3.2 kmh SSW 4.9 mph7.9 kmh 29.46 in997.6 mb 0.00 in0.0 mm 0.00 in0.0 mm 0.00 in0.0 mm
11:25 AM 89.3°F31.8°C 67.0°F19.4°C 48% 0.7 mph SW1.1 kmh SW 2.5 mph4.0 kmh 29.46 in997.6 mb 0.00 in0.0 mm 0.00 in0.0 mm 0.00 in0.0 mm
11:20 AM 88.8°F31.6°C 67.1°F19.5°C 49% 2.0 mph S3.2 kmh S 4.9 mph7.9 kmh 29.46 in997.6 mb 0.00 in0.0 mm 0.00 in0.0 mm 0.00 in0.0 mm
11:15 AM 88.7°F31.5°C 67.6°F19.8°C 50% 1.2 mph WSW1.9 kmh WSW 4.9 mph7.9 kmh 29.46 in997.6 mb 0.00 in0.0 mm 0.00 in0.0 mm 0.00 in0.0 mm
11:10 AM 88.7°F31.5°C 67.6°F19.8°C 50% 1.2 mph WSW1.9 kmh WSW 4.9 mph7.9 kmh 29.46 in997.6 mb 0.00 in0.0 mm 0.00 in0.0 mm 0.00 in0.0 mm
11:05 AM 88.1°F31.2°C 67.6°F19.8°C 51% 0.7 mph WSW1.1 kmh WSW 2.5 mph4.0 kmh 29.46 in997.6 mb 0.00 in0.0 mm 0.00 in0.0 mm 0.00 in0.0 mm
11:00 AM 87.5°F30.8°C 67.5°F19.7°C 52% 1.1 mph SW1.8 kmh SW 2.5 mph4.0 kmh 29.46 in997.6 mb 0.00 in0.0 mm 0.00 in0.0 mm 0.00 in0.0 mm
10:55 AM 87.3°F30.7°C 67.7°F19.8°C 52% 1.7 mph SSW2.7 kmh SSW 4.9 mph7.9 kmh 29.46 in997.6 mb 0.00 in0.0 mm 0.00 in0.0 mm 0.00 in0.0 mm
10:50 AM 87.3°F30.7°C 67.8°F19.9°C 52% 1.1 mph SW1.8 kmh SW 4.9 mph7.9 kmh 29.46 in997.6 mb 0.00 in0.0 mm 0.00 in0.0 mm 0.00 in0.0 mm
10:45 AM 87.3°F30.7°C 68.1°F20.1°C 53% 1.4 mph WSW2.3 kmh WSW 4.9 mph7.9 kmh 29.46 in997.6 mb 0.00 in0.0 mm 0.00 in0.0 mm 0.00 in0.0 mm
10:40 AM 87.3°F30.7°C 68.4°F20.2°C 54% 1.1 mph S1.8 kmh S 4.9 mph7.9 kmh 29.46 in997.6 mb 0.00 in0.0 mm 0.00 in0.0 mm 0.00 in0.0 mm
10:35 AM 87.3°F30.7°C 69.4°F20.8°C 55% 1.1 mph WSW1.8 kmh WSW 2.5 mph4.0 kmh 29.46 in997.6 mb 0.00 in0.0 mm 0.00 in0.0 mm 0.00 in0.0 mm
10:30 AM 87.4°F30.8°C 69.4°F20.8°C 55% 1.1 mph S1.8 kmh S 4.9 mph7.9 kmh 29.46 in997.6 mb 0.00 in0.0 mm 0.00 in0.0 mm 0.00 in0.0 mm
10:25 AM 86.3°F30.2°C 68.8°F20.4°C 56% 0.5 mph SW0.8 kmh SW 2.5 mph4.0 kmh 29.46 in997.6 mb 0.00 in0.0 mm 0.00 in0.0 mm 0.00 in0.0 mm
10:20 AM 85.5°F29.7°C 68.9°F20.5°C 58% 0.5 mph SW0.8 kmh SW 4.9 mph7.9 kmh 29.46 in997.6 mb 0.00 in0.0 mm 0.00 in0.0 mm 0.00 in0.0 mm
10:15 AM 85.5°F29.7°C 70.0°F21.1°C 60% 1.4 mph WSW2.3 kmh WSW 4.9 mph7.9 kmh 29.46 in997.6 mb 0.00 in0.0 mm 0.00 in0.0 mm 0.00 in0.0 mm
10:10 AM 85.5°F29.7°C 69.7°F20.9°C 59% 0.9 mph SW1.4 kmh SW 2.5 mph4.0 kmh 29.46 in997.6 mb 0.00 in0.0 mm 0.00 in0.0 mm 0.00 in0.0 mm
10:05 AM 84.5°F29.2°C 68.8°F20.4°C 60% 2.6 mph WSW4.2 kmh WSW 4.9 mph7.9 kmh 29.46 in997.6 mb 0.00 in0.0 mm 0.00 in0.0 mm 0.00 in0.0 mm
10:00 AM 83.6°F28.7°C 69.1°F20.6°C 62% 0.8 mph WSW1.3 kmh WSW 4.9 mph7.9 kmh 29.46 in997.6 mb 0.00 in0.0 mm 0.00 in0.0 mm 0.00 in0.0 mm
09:55 AM 83.3°F28.5°C 68.6°F20.3°C 62% 1.4 mph WSW2.3 kmh WSW 4.9 mph7.9 kmh 29.45 in997.3 mb 0.00 in0.0 mm 0.00 in0.0 mm 0.00 in0.0 mm
09:50 AM 83.0°F28.3°C 69.6°F20.9°C 64% 1.6 mph SW2.6 kmh SW 4.9 mph7.9 kmh 29.46 in997.6 mb 0.00 in0.0 mm 0.00 in0.0 mm 0.00 in0.0 mm
09:45 AM 83.1°F28.4°C 70.7°F21.5°C 66% 1.8 mph S2.9 kmh S 7.4 mph11.9 kmh 29.45 in997.3 mb 0.00 in0.0 mm 0.00 in0.0 mm 0.00 in0.0 mm
09:40 AM 83.4°F28.6°C 70.9°F21.6°C 66% 1.0 mph SSW1.6 kmh SSW 7.4 mph11.9 kmh 29.46 in997.6 mb 0.00 in0.0 mm 0.00 in0.0 mm 0.00 in0.0 mm
09:35 AM 83.6°F28.7°C 70.4°F21.3°C 65% 2.7 mph S4.3 kmh S 7.4 mph11.9 kmh 29.46 in997.6 mb 0.00 in0.0 mm 0.00 in0.0 mm 0.00 in0.0 mm
09:30 AM 83.5°F28.6°C 70.1°F21.2°C 64% 1.8 mph SW2.9 kmh SW 4.9 mph7.9 kmh 29.46 in997.6 mb 0.00 in0.0 mm 0.00 in0.0 mm 0.00 in0.0 mm
09:25 AM 83.1°F28.4°C 69.4°F20.8°C 64% 1.6 mph SW2.6 kmh SW 4.9 mph7.9 kmh 29.45 in997.3 mb 0.00 in0.0 mm 0.00 in0.0 mm 0.00 in0.0 mm
09:20 AM 82.4°F28.0°C 68.6°F20.3°C 63% 1.7 mph SW2.7 kmh SW 7.4 mph11.9 kmh 29.46 in997.6 mb 0.00 in0.0 mm 0.00 in0.0 mm 0.00 in0.0 mm
09:15 AM 82.0°F27.8°C 69.7°F20.9°C 66% 1.6 mph SSW2.6 kmh SSW 7.4 mph11.9 kmh 29.45 in997.3 mb 0.00 in0.0 mm 0.00 in0.0 mm 0.00 in0.0 mm
09:10 AM 81.7°F27.6°C 70.3°F21.3°C 68% 2.3 mph W3.7 kmh W 7.4 mph11.9 kmh 29.45 in997.3 mb 0.00 in0.0 mm 0.00 in0.0 mm 0.00 in0.0 mm
09:05 AM 81.5°F27.5°C 70.8°F21.6°C 70% 0.8 mph S1.3 kmh S 4.9 mph7.9 kmh 29.46 in997.6 mb 0.00 in0.0 mm 0.00 in0.0 mm 0.00 in0.0 mm
09:00 AM 81.4°F27.4°C 70.5°F21.4°C 70% 1.5 mph SW2.4 kmh SW 7.4 mph11.9 kmh 29.45 in997.3 mb 0.00 in0.0 mm 0.00 in0.0 mm 0.00 in0.0 mm
08:55 AM 81.1°F27.3°C 70.5°F21.4°C 70% 1.1 mph SW1.8 kmh SW 2.5 mph4.0 kmh 29.45 in997.3 mb 0.00 in0.0 mm 0.00 in0.0 mm 0.00 in0.0 mm
08:50 AM 81.0°F27.2°C 71.3°F21.8°C 72% 1.7 mph SW2.7 kmh SW 4.9 mph7.9 kmh 29.45 in997.3 mb 0.00 in0.0 mm 0.00 in0.0 mm 0.00 in0.0 mm
08:45 AM 80.5°F26.9°C 71.6°F22.0°C 74% 2.6 mph SSE4.2 kmh SSE 7.4 mph11.9 kmh 29.45 in997.3 mb 0.00 in0.0 mm 0.00 in0.0 mm 0.00 in0.0 mm
08:40 AM 79.1°F26.2°C 71.8°F22.1°C 78% 3.5 mph SSW5.6 kmh SSW 7.4 mph11.9 kmh 29.45 in997.3 mb 0.00 in0.0 mm 0.00 in0.0 mm 0.00 in0.0 mm
08:35 AM 79.0°F26.1°C 72.3°F22.4°C 80% 2.2 mph S3.5 kmh S 7.4 mph11.9 kmh 29.45 in997.3 mb 0.00 in0.0 mm 0.00 in0.0 mm 0.00 in0.0 mm
08:30 AM 79.0°F26.1°C 71.9°F22.2°C 79% 2.5 mph S4.0 kmh S 7.4 mph11.9 kmh 29.44 in997.0 mb 0.00 in0.0 mm 0.00 in0.0 mm 0.00 in0.0 mm
08:25 AM 79.0°F26.1°C 71.3°F21.8°C 77% 2.4 mph SW3.9 kmh SW 7.4 mph11.9 kmh 29.44 in997.0 mb 0.00 in0.0 mm 0.00 in0.0 mm 0.00 in0.0 mm
08:20 AM 78.1°F25.6°C 70.9°F21.6°C 78% 2.2 mph S3.5 kmh S 7.4 mph11.9 kmh 29.45 in997.3 mb 0.00 in0.0 mm 0.00 in0.0 mm 0.00 in0.0 mm
08:15 AM 77.8°F25.4°C 71.0°F21.7°C 80% 2.8 mph S4.5 kmh S 7.4 mph11.9 kmh 29.44 in997.0 mb 0.00 in0.0 mm 0.00 in0.0 mm 0.00 in0.0 mm
08:10 AM 77.5°F25.3°C 70.9°F21.6°C 80% 3.5 mph S5.6 kmh S 9.8 mph15.8 kmh 29.44 in997.0 mb 0.00 in0.0 mm 0.00 in0.0 mm 0.00 in0.0 mm
08:05 AM 77.4°F25.2°C 71.1°F21.7°C 81% 3.6 mph SSE5.8 kmh SSE 7.4 mph11.9 kmh 29.44 in997.0 mb 0.00 in0.0 mm 0.00 in0.0 mm 0.00 in0.0 mm
08:00 AM 77.2°F25.1°C 71.5°F21.9°C 83% 3.2 mph S5.1 kmh S 7.4 mph11.9 kmh 29.44 in997.0 mb 0.00 in0.0 mm 0.00 in0.0 mm 0.00 in0.0 mm
07:55 AM 77.2°F25.1°C 72.2°F22.3°C 84% 1.7 mph SSW2.7 kmh SSW 4.9 mph7.9 kmh 29.43 in996.6 mb 0.00 in0.0 mm 0.00 in0.0 mm 0.00 in0.0 mm
07:50 AM 77.2°F25.1°C 72.8°F22.7°C 86% 2.8 mph S4.5 kmh S 7.4 mph11.9 kmh 29.43 in996.6 mb 0.00 in0.0 mm 0.00 in0.0 mm 0.00 in0.0 mm
07:45 AM 77.2°F25.1°C 73.2°F22.9°C 88% 2.0 mph SSW3.2 kmh SSW 4.9 mph7.9 kmh 29.43 in996.6 mb 0.00 in0.0 mm 0.00 in0.0 mm 0.00 in0.0 mm
07:40 AM 77.0°F25.0°C 73.5°F23.1°C 89% 2.8 mph S4.5 kmh S 7.4 mph11.9 kmh 29.43 in996.6 mb 0.00 in0.0 mm 0.00 in0.0 mm 0.00 in0.0 mm
07:35 AM 77.0°F25.0°C 73.5°F23.1°C 89% 2.3 mph S3.7 kmh S 4.9 mph7.9 kmh 29.43 in996.6 mb 0.00 in0.0 mm 0.00 in0.0 mm 0.00 in0.0 mm
07:30 AM 77.0°F25.0°C 73.5°F23.1°C 89% 4.9 mph S7.9 kmh S 9.8 mph15.8 kmh 29.42 in996.3 mb 0.00 in0.0 mm 0.00 in0.0 mm 0.00 in0.0 mm
07:25 AM 77.0°F25.0°C 73.5°F23.1°C 89% 3.7 mph S6.0 kmh S 7.4 mph11.9 kmh 29.42 in996.3 mb 0.00 in0.0 mm 0.00 in0.0 mm 0.00 in0.0 mm
07:20 AM 76.7°F24.8°C 73.2°F22.9°C 89% 4.6 mph S7.4 kmh S 12.3 mph19.8 kmh 29.41 in995.9 mb 0.00 in0.0 mm 0.00 in0.0 mm 0.00 in0.0 mm
07:15 AM 76.6°F24.8°C 73.4°F23.0°C 90% 4.9 mph SSE7.9 kmh SSE 7.4 mph11.9 kmh 29.42 in996.3 mb 0.00 in0.0 mm 0.00 in0.0 mm 0.00 in0.0 mm
07:10 AM 76.6°F24.8°C 73.4°F23.0°C 90% 4.0 mph S6.4 kmh S 9.8 mph15.8 kmh 29.41 in995.9 mb 0.00 in0.0 mm 0.00 in0.0 mm 0.00 in0.0 mm
07:05 AM 76.8°F24.9°C 73.3°F22.9°C 89% 4.1 mph S6.6 kmh S 9.8 mph15.8 kmh 29.41 in995.9 mb 0.00 in0.0 mm 0.00 in0.0 mm 0.00 in0.0 mm
07:00 AM 76.6°F24.8°C 73.1°F22.8°C 89% 5.5 mph SSE8.9 kmh SSE 7.4 mph11.9 kmh 29.41 in995.9 mb 0.00 in0.0 mm 0.00 in0.0 mm 0.00 in0.0 mm
06:55 AM 76.7°F24.8°C 72.9°F22.7°C 88% 5.1 mph SSE8.2 kmh SSE 9.8 mph15.8 kmh 29.39 in995.3 mb 0.00 in0.0 mm 0.00 in0.0 mm 0.00 in0.0 mm
06:50 AM 76.8°F24.9°C 73.0°F22.8°C 88% 4.2 mph SSE6.8 kmh SSE 7.4 mph11.9 kmh 29.40 in995.6 mb 0.00 in0.0 mm 0.00 in0.0 mm 0.00 in0.0 mm
06:45 AM 76.8°F24.9°C 72.7°F22.6°C 87% 3.5 mph S5.6 kmh S 7.4 mph11.9 kmh 29.39 in995.3 mb 0.00 in0.0 mm 0.00 in0.0 mm 0.00 in0.0 mm
06:40 AM 76.6°F24.8°C 72.4°F22.4°C 87% 4.8 mph SSE7.7 kmh SSE 9.8 mph15.8 kmh 29.39 in995.3 mb 0.00 in0.0 mm 0.00 in0.0 mm 0.00 in0.0 mm
06:35 AM 76.6°F24.8°C 72.1°F22.3°C 86% 5.5 mph S8.9 kmh S 9.8 mph15.8 kmh 29.39 in995.3 mb 0.00 in0.0 mm 0.00 in0.0 mm 0.00 in0.0 mm
06:30 AM 76.6°F24.8°C 72.1°F22.3°C 86% 5.0 mph S8.0 kmh S 9.8 mph15.8 kmh 29.39 in995.3 mb 0.00 in0.0 mm 0.00 in0.0 mm 0.00 in0.0 mm
06:25 AM 76.7°F24.8°C 71.9°F22.2°C 85% 3.8 mph S6.1 kmh S 7.4 mph11.9 kmh 29.39 in995.3 mb 0.00 in0.0 mm 0.00 in0.0 mm 0.00 in0.0 mm
06:20 AM 76.6°F24.8°C 71.7°F22.1°C 85% 4.4 mph SSE7.1 kmh SSE 7.4 mph11.9 kmh 29.39 in995.3 mb 0.00 in0.0 mm 0.00 in0.0 mm 0.00 in0.0 mm
06:15 AM 76.6°F24.8°C 71.7°F22.1°C 85% 4.2 mph S6.8 kmh S 9.8 mph15.8 kmh 29.39 in995.3 mb 0.00 in0.0 mm 0.00 in0.0 mm 0.00 in0.0 mm
06:10 AM 76.7°F24.8°C 71.5°F21.9°C 84% 3.5 mph S5.6 kmh S 7.4 mph11.9 kmh 29.39 in995.3 mb 0.00 in0.0 mm 0.00 in0.0 mm 0.00 in0.0 mm
06:05 AM 76.8°F24.9°C 71.6°F22.0°C 84% 3.9 mph SSE6.3 kmh SSE 9.8 mph15.8 kmh 29.39 in995.3 mb 0.00 in0.0 mm 0.00 in0.0 mm 0.00 in0.0 mm
06:00 AM 76.6°F24.8°C 71.4°F21.9°C 84% 3.9 mph SE6.3 kmh SE 7.4 mph11.9 kmh 29.39 in995.3 mb 0.00 in0.0 mm 0.00 in0.0 mm 0.00 in0.0 mm
05:55 AM 76.6°F24.8°C 71.0°F21.7°C 83% 4.9 mph SSE7.9 kmh SSE 9.8 mph15.8 kmh 29.39 in995.3 mb 0.00 in0.0 mm 0.00 in0.0 mm 0.00 in0.0 mm
05:50 AM 76.6°F24.8°C 71.2°F21.8°C 83% 3.6 mph S5.8 kmh S 7.4 mph11.9 kmh 29.39 in995.3 mb 0.00 in0.0 mm 0.00 in0.0 mm 0.00 in0.0 mm
05:45 AM 76.6°F24.8°C 71.4°F21.9°C 84% 4.9 mph S7.9 kmh S 9.8 mph15.8 kmh 29.38 in994.9 mb 0.00 in0.0 mm 0.00 in0.0 mm 0.00 in0.0 mm
05:40 AM 75.9°F24.4°C 71.0°F21.7°C 85% 4.8 mph SE7.7 kmh SE 7.4 mph11.9 kmh 29.38 in994.9 mb 0.00 in0.0 mm 0.00 in0.0 mm 0.00 in0.0 mm
05:35 AM 75.6°F24.2°C 70.8°F21.6°C 85% 1.2 mph S1.9 kmh S 4.9 mph7.9 kmh 29.39 in995.3 mb 0.00 in0.0 mm 0.00 in0.0 mm 0.00 in0.0 mm
05:30 AM 75.6°F24.2°C 70.8°F21.6°C 85% 1.8 mph S2.9 kmh S 4.9 mph7.9 kmh 29.38 in994.9 mb 0.00 in0.0 mm 0.00 in0.0 mm 0.00 in0.0 mm
05:25 AM 75.6°F24.2°C 70.8°F21.6°C 85% 1.3 mph S2.1 kmh S 4.9 mph7.9 kmh 29.39 in995.3 mb 0.00 in0.0 mm 0.00 in0.0 mm 0.00 in0.0 mm
05:20 AM 75.6°F24.2°C 70.8°F21.6°C 85% Calm Calm 2.5 mph4.0 kmh 29.39 in995.3 mb 0.00 in0.0 mm 0.00 in0.0 mm 0.00 in0.0 mm
05:15 AM 75.6°F24.2°C 70.6°F21.4°C 84% Calm Calm -- 29.38 in994.9 mb 0.00 in0.0 mm 0.00 in0.0 mm 0.00 in0.0 mm
05:10 AM 75.7°F24.3°C 70.5°F21.4°C 84% 0.5 mph S0.8 kmh S 2.5 mph4.0 kmh 29.38 in994.9 mb 0.00 in0.0 mm 0.00 in0.0 mm 0.00 in0.0 mm
05:05 AM 75.7°F24.3°C 70.5°F21.4°C 84% Calm Calm 2.5 mph4.0 kmh 29.39 in995.3 mb 0.00 in0.0 mm 0.00 in0.0 mm 0.00 in0.0 mm
05:00 AM 75.6°F24.2°C 70.6°F21.4°C 85% 0.2 mph S0.3 kmh S 2.5 mph4.0 kmh 29.39 in995.3 mb 0.00 in0.0 mm 0.00 in0.0 mm 0.00 in0.0 mm
04:55 AM 75.6°F24.2°C 70.4°F21.3°C 84% Calm Calm -- 29.39 in995.3 mb 0.00 in0.0 mm 0.00 in0.0 mm 0.00 in0.0 mm
04:50 AM 75.6°F24.2°C 70.4°F21.3°C 84% Calm Calm -- 29.38 in994.9 mb 0.00 in0.0 mm 0.00 in0.0 mm 0.00 in0.0 mm
04:45 AM 75.6°F24.2°C 70.4°F21.3°C 84% Calm Calm 2.5 mph4.0 kmh 29.38 in994.9 mb 0.00 in0.0 mm 0.00 in0.0 mm 0.00 in0.0 mm
04:40 AM 75.8°F24.3°C 70.6°F21.4°C 84% 0.2 mph S0.3 kmh S 2.5 mph4.0 kmh 29.38 in994.9 mb 0.00 in0.0 mm 0.00 in0.0 mm 0.00 in0.0 mm
04:35 AM 75.9°F24.4°C 70.4°F21.3°C 83% Calm Calm 2.5 mph4.0 kmh 29.38 in994.9 mb 0.00 in0.0 mm 0.00 in0.0 mm 0.00 in0.0 mm
04:30 AM 75.9°F24.4°C 70.4°F21.3°C 83% Calm Calm -- 29.38 in994.9 mb 0.00 in0.0 mm 0.00 in0.0 mm 0.00 in0.0 mm
04:25 AM 76.0°F24.4°C 70.5°F21.4°C 83% 0.2 mph SSE0.3 kmh SSE 2.5 mph4.0 kmh 29.39 in995.3 mb 0.00 in0.0 mm 0.00 in0.0 mm 0.00 in0.0 mm
04:20 AM 75.6°F24.2°C 70.4°F21.3°C 84% Calm Calm -- 29.38 in994.9 mb 0.00 in0.0 mm 0.00 in0.0 mm 0.00 in0.0 mm
04:15 AM 75.2°F24.0°C 70.4°F21.3°C 85% Calm Calm -- 29.38 in994.9 mb 0.00 in0.0 mm 0.00 in0.0 mm 0.00 in0.0 mm
04:10 AM 75.2°F24.0°C 70.1°F21.2°C 84% Calm Calm -- 29.38 in994.9 mb 0.00 in0.0 mm 0.00 in0.0 mm 0.00 in0.0 mm
04:05 AM 75.2°F24.0°C 70.0°F21.1°C 84% Calm Calm -- 29.38 in994.9 mb 0.00 in0.0 mm 0.00 in0.0 mm 0.00 in0.0 mm
04:00 AM 75.4°F24.1°C 70.2°F21.2°C 84% Calm Calm -- 29.38 in994.9 mb 0.00 in0.0 mm 0.00 in0.0 mm 0.00 in0.0 mm
03:55 AM 75.7°F24.3°C 70.5°F21.4°C 84% Calm Calm -- 29.38 in994.9 mb 0.00 in0.0 mm 0.00 in0.0 mm 0.00 in0.0 mm
03:50 AM 75.7°F24.3°C 70.5°F21.4°C 84% Calm Calm -- 29.39 in995.3 mb 0.00 in0.0 mm 0.00 in0.0 mm 0.00 in0.0 mm
03:45 AM 75.7°F24.3°C 70.5°F21.4°C 84% Calm Calm -- 29.39 in995.3 mb 0.00 in0.0 mm 0.00 in0.0 mm 0.00 in0.0 mm
03:40 AM 75.6°F24.2°C 70.4°F21.3°C 84% Calm Calm -- 29.39 in995.3 mb 0.00 in0.0 mm 0.00 in0.0 mm 0.00 in0.0 mm
03:35 AM 75.6°F24.2°C 70.3°F21.3°C 84% Calm Calm -- 29.39 in995.3 mb 0.00 in0.0 mm 0.00 in0.0 mm 0.00 in0.0 mm
03:30 AM 75.6°F24.2°C 70.1°F21.2°C 83% Calm Calm -- 29.38 in994.9 mb 0.00 in0.0 mm 0.00 in0.0 mm 0.00 in0.0 mm
03:25 AM 75.6°F24.2°C 70.1°F21.2°C 83% Calm Calm -- 29.38 in994.9 mb 0.00 in0.0 mm 0.00 in0.0 mm 0.00 in0.0 mm
03:20 AM 75.6°F24.2°C 70.0°F21.1°C 83% Calm Calm -- 29.38 in994.9 mb 0.00 in0.0 mm 0.00 in0.0 mm 0.00 in0.0 mm
03:15 AM 75.6°F24.2°C 69.7°F20.9°C 82% Calm Calm -- 29.39 in995.3 mb 0.00 in0.0 mm 0.00 in0.0 mm 0.00 in0.0 mm
03:10 AM 75.5°F24.2°C 69.9°F21.1°C 83% Calm Calm -- 29.38 in994.9 mb 0.00 in0.0 mm 0.00 in0.0 mm 0.00 in0.0 mm
03:05 AM 75.4°F24.1°C 70.3°F21.3°C 84% Calm Calm -- 29.38 in994.9 mb 0.00 in0.0 mm 0.00 in0.0 mm 0.00 in0.0 mm
03:00 AM 75.2°F24.0°C 70.4°F21.3°C 85% Calm Calm -- 29.38 in994.9 mb 0.00 in0.0 mm 0.00 in0.0 mm 0.00 in0.0 mm
02:55 AM 75.0°F23.9°C 70.5°F21.4°C 86% Calm Calm -- 29.39 in995.3 mb 0.00 in0.0 mm 0.00 in0.0 mm 0.00 in0.0 mm
02:50 AM 75.0°F23.9°C 70.3°F21.3°C 86% Calm Calm -- 29.39 in995.3 mb 0.00 in0.0 mm 0.00 in0.0 mm 0.00 in0.0 mm
02:45 AM 75.0°F23.9°C 70.2°F21.2°C 85% Calm Calm -- 29.39 in995.3 mb 0.00 in0.0 mm 0.00 in0.0 mm 0.00 in0.0 mm
02:40 AM 75.1°F23.9°C 70.4°F21.3°C 85% Calm Calm -- 29.39 in995.3 mb 0.00 in0.0 mm 0.00 in0.0 mm 0.00 in0.0 mm
02:35 AM 75.2°F24.0°C 70.1°F21.2°C 84% Calm Calm -- 29.39 in995.3 mb 0.00 in0.0 mm 0.00 in0.0 mm 0.00 in0.0 mm
02:30 AM 75.2°F24.0°C 70.0°F21.1°C 84% Calm Calm -- 29.39 in995.3 mb 0.00 in0.0 mm 0.00 in0.0 mm 0.00 in0.0 mm
02:25 AM 75.2°F24.0°C 69.9°F21.1°C 84% Calm Calm -- 29.39 in995.3 mb 0.00 in0.0 mm 0.00 in0.0 mm 0.00 in0.0 mm
02:20 AM 75.2°F24.0°C 69.7°F20.9°C 83% Calm Calm -- 29.39 in995.3 mb 0.00 in0.0 mm 0.00 in0.0 mm 0.00 in0.0 mm
02:19 AM 75.7°F24.3°C 68.7°F20.4°C 79% 0.4 mph E0.6 kmh E 2.5 mph4.0 kmh 29.39 in995.3 mb 0.00 in0.0 mm 0.00 in0.0 mm 0.01 in0.3 mm
02:18 AM 75.7°F24.3°C 68.7°F20.4°C 79% 0.4 mph E0.6 kmh E 2.5 mph4.0 kmh 29.39 in995.3 mb 0.00 in0.0 mm 0.00 in0.0 mm 0.01 in0.3 mm